createdAt,value
2023-05-18T00:00:34.547Z,66.34
2023-05-18T00:01:34.601Z,66.54
2023-05-18T00:02:34.603Z,66.75
2023-05-18T00:03:34.725Z,66.64
2023-05-18T00:04:34.576Z,66.75
2023-05-18T00:05:34.805Z,66.85
2023-05-18T00:06:34.484Z,66.85
2023-05-18T00:07:34.504Z,66.75
2023-05-18T00:08:34.480Z,66.96
2023-05-18T00:09:34.468Z,66.99
2023-05-18T00:10:34.473Z,66.88
2023-05-18T00:11:34.444Z,66.78
2023-05-18T00:12:34.413Z,66.78
2023-05-18T00:13:34.446Z,66.78
2023-05-18T00:14:34.414Z,66.78
2023-05-18T00:15:34.410Z,67.09
2023-05-18T00:16:34.460Z,66.99
2023-05-18T00:17:34.436Z,66.99
2023-05-18T00:18:34.511Z,66.88
2023-05-18T00:19:34.392Z,67.09
2023-05-18T00:20:34.356Z,67.09
2023-05-18T00:21:34.336Z,67.09
2023-05-18T00:22:34.332Z,67.09
2023-05-18T00:23:34.313Z,67.19
2023-05-18T00:24:36.862Z,67.19
2023-05-18T00:25:34.305Z,67.19
2023-05-18T00:26:34.297Z,66.78
2023-05-18T00:27:34.268Z,66.78
2023-05-18T00:28:34.275Z,66.88
2023-05-18T00:29:34.264Z,66.99
2023-05-18T00:30:34.259Z,66.91
2023-05-18T00:31:34.312Z,67.02
2023-05-18T00:32:34.254Z,67.02
2023-05-18T00:33:34.218Z,66.91
2023-05-18T00:34:34.212Z,67.22
2023-05-18T00:35:34.200Z,67.43
2023-05-18T00:36:34.171Z,67.53
2023-05-18T00:37:34.221Z,67.74
2023-05-18T00:38:34.160Z,67.84
2023-05-18T00:39:34.160Z,67.84
2023-05-18T00:40:34.135Z,67.43
2023-05-18T00:41:34.139Z,67.53
2023-05-18T00:42:34.143Z,67.63
2023-05-18T00:43:34.137Z,67.53
2023-05-18T00:44:34.127Z,67.57
2023-05-18T00:45:34.244Z,67.77
2023-05-18T00:46:34.250Z,67.87
2023-05-18T00:47:34.121Z,67.84
2023-05-18T00:48:34.064Z,67.77
2023-05-18T00:49:34.052Z,67.97
2023-05-18T00:50:34.066Z,67.97
2023-05-18T00:51:34.044Z,67.97
2023-05-18T00:52:34.060Z,68.08
2023-05-18T00:53:34.021Z,68.08
2023-05-18T00:54:34.002Z,67.97
2023-05-18T00:55:34.166Z,68.18
2023-05-18T00:56:33.984Z,68.18
2023-05-18T00:57:34.025Z,68.29
2023-05-18T00:58:33.967Z,68.49
2023-05-18T00:59:33.964Z,68.49
2023-05-18T01:00:34.002Z,68.59
2023-05-18T01:01:33.993Z,68.49
2023-05-18T01:02:33.993Z,68.49
2023-05-18T01:03:33.964Z,68.59
2023-05-18T01:04:33.899Z,68.49
2023-05-18T01:05:33.914Z,68.49
2023-05-18T01:06:33.894Z,68.49
2023-05-18T01:07:33.906Z,68.49
2023-05-18T01:08:33.925Z,68.49
2023-05-18T01:09:33.870Z,68.49
2023-05-18T01:10:33.863Z,68.59
2023-05-18T01:11:33.895Z,68.70
2023-05-18T01:12:33.825Z,68.49
2023-05-18T01:13:33.838Z,68.70
2023-05-18T01:14:33.838Z,68.80
2023-05-18T01:15:33.830Z,68.80
2023-05-18T01:16:33.824Z,68.70
2023-05-18T01:17:33.920Z,68.80
2023-05-18T01:18:33.802Z,68.90
2023-05-18T01:19:33.748Z,68.80
2023-05-18T01:20:34.159Z,68.70
2023-05-18T01:21:33.738Z,68.59
2023-05-18T01:22:33.735Z,68.59
2023-05-18T01:23:33.742Z,68.59
2023-05-18T01:24:33.714Z,68.59
2023-05-18T01:25:33.709Z,68.59
2023-05-18T01:26:33.913Z,68.70
2023-05-18T01:27:33.672Z,68.59
2023-05-18T01:28:33.692Z,68.59
2023-05-18T01:29:33.647Z,68.59
2023-05-18T01:30:33.632Z,68.49
2023-05-18T01:31:33.649Z,68.70
2023-05-18T01:32:33.685Z,68.59
2023-05-18T01:33:33.611Z,68.80
2023-05-18T01:34:33.603Z,69.04
2023-05-18T01:35:33.655Z,69.04
2023-05-18T01:36:33.578Z,68.83
2023-05-18T01:37:33.557Z,68.73
2023-05-18T01:38:33.590Z,68.83
2023-05-18T01:39:33.569Z,68.62
2023-05-18T01:40:33.555Z,68.93
2023-05-18T01:41:33.564Z,68.93
2023-05-18T01:42:33.538Z,69.04
2023-05-18T01:43:33.506Z,69.14
2023-05-18T01:44:33.550Z,69.24
2023-05-18T01:45:33.490Z,69.24
2023-05-18T01:46:33.517Z,69.35
2023-05-18T01:47:33.567Z,69.14
2023-05-18T01:48:33.468Z,69.14
2023-05-18T01:49:33.466Z,69.14
2023-05-18T01:50:33.456Z,69.24
2023-05-18T01:51:33.447Z,69.04
2023-05-18T01:52:33.445Z,69.14
2023-05-18T01:53:33.420Z,69.24
2023-05-18T01:54:33.398Z,69.24
2023-05-18T01:55:33.400Z,69.04
2023-05-18T01:56:33.425Z,69.14
2023-05-18T01:57:33.380Z,69.35
2023-05-18T01:58:33.387Z,69.55
2023-05-18T01:59:33.359Z,69.14
2023-05-18T02:00:33.340Z,69.24
2023-05-18T02:01:33.376Z,69.35
2023-05-18T02:02:33.468Z,69.45
2023-05-18T02:03:33.479Z,69.55
2023-05-18T02:04:33.292Z,69.55
2023-05-18T02:05:33.295Z,69.35
2023-05-18T02:06:33.291Z,69.55
2023-05-18T02:07:33.267Z,69.79
2023-05-18T02:08:33.271Z,69.89
2023-05-18T02:09:33.246Z,69.89
2023-05-18T02:10:33.262Z,70.00
2023-05-18T02:11:33.246Z,70.10
2023-05-18T02:12:33.239Z,70.10
2023-05-18T02:13:33.254Z,70.20
2023-05-18T02:14:33.209Z,70.31
2023-05-18T02:15:33.230Z,70.10
2023-05-18T02:16:33.232Z,69.79
2023-05-18T02:17:33.182Z,69.89
2023-05-18T02:18:33.142Z,70.10
2023-05-18T02:19:33.183Z,70.10
2023-05-18T02:20:33.132Z,70.20
2023-05-18T02:21:33.115Z,70.20
2023-05-18T02:22:33.137Z,70.13
2023-05-18T02:23:33.138Z,70.13
2023-05-18T02:24:33.119Z,70.34
2023-05-18T02:25:33.180Z,70.23
2023-05-18T02:26:33.082Z,70.23
2023-05-18T02:27:33.068Z,70.23
2023-05-18T02:28:33.116Z,70.34
2023-05-18T02:29:33.565Z,70.34
2023-05-18T02:30:33.029Z,70.44
2023-05-18T02:31:33.062Z,70.44
2023-05-18T02:32:33.073Z,70.44
2023-05-18T02:33:33.010Z,70.65
2023-05-18T02:34:33.069Z,70.65
2023-05-18T02:35:33.065Z,70.65
2023-05-18T02:36:32.978Z,70.54
2023-05-18T02:37:32.980Z,70.65
2023-05-18T02:38:32.972Z,70.54
2023-05-18T02:39:32.967Z,70.54
2023-05-18T02:40:32.957Z,70.65
2023-05-18T02:41:33.040Z,70.54
2023-05-18T02:42:32.914Z,70.54
2023-05-18T02:43:32.894Z,70.34
2023-05-18T02:44:32.898Z,70.34
2023-05-18T02:45:33.122Z,70.34
2023-05-18T02:46:32.899Z,70.44
2023-05-18T02:47:32.946Z,70.54
2023-05-18T02:48:32.851Z,70.44
2023-05-18T02:49:32.848Z,70.65
2023-05-18T02:50:32.859Z,70.65
2023-05-18T02:51:32.877Z,70.86
2023-05-18T02:52:32.818Z,70.96
2023-05-18T02:53:32.828Z,70.86
2023-05-18T02:54:32.784Z,70.75
2023-05-18T02:55:32.865Z,70.96
2023-05-18T02:56:32.794Z,70.96
2023-05-18T02:57:32.777Z,71.06
2023-05-18T02:58:32.759Z,71.26
2023-05-18T02:59:32.771Z,71.37
2023-05-18T03:00:32.744Z,71.47
2023-05-18T03:01:32.755Z,71.51
2023-05-18T03:02:32.819Z,71.51
2023-05-18T03:03:32.759Z,71.61
2023-05-18T03:04:32.719Z,71.71
2023-05-18T03:05:32.692Z,71.61
2023-05-18T03:06:32.681Z,71.71
2023-05-18T03:07:32.700Z,71.61
2023-05-18T03:08:32.641Z,71.61
2023-05-18T03:09:32.641Z,71.51
2023-05-18T03:10:32.630Z,71.61
2023-05-18T03:11:32.626Z,71.71
2023-05-18T03:12:32.599Z,71.71
2023-05-18T03:13:32.623Z,71.71
2023-05-18T03:14:32.606Z,71.81
2023-05-18T03:15:32.804Z,71.81
2023-05-18T03:16:32.650Z,71.92
2023-05-18T03:17:32.606Z,71.92
2023-05-18T03:18:32.568Z,72.02
2023-05-18T03:19:32.596Z,72.23
2023-05-18T03:20:32.546Z,72.33
2023-05-18T03:21:32.542Z,72.23
2023-05-18T03:22:32.501Z,72.33
2023-05-18T03:23:32.493Z,72.33
2023-05-18T03:24:32.493Z,72.44
2023-05-18T03:25:32.669Z,72.44
2023-05-18T03:26:32.509Z,72.54
2023-05-18T03:27:32.477Z,72.54
2023-05-18T03:28:32.458Z,72.47
2023-05-18T03:29:32.445Z,72.57
2023-05-18T03:30:32.428Z,72.36
2023-05-18T03:31:32.750Z,72.47
2023-05-18T03:32:32.425Z,72.47
2023-05-18T03:33:32.399Z,72.47
2023-05-18T03:34:32.380Z,72.36
2023-05-18T03:35:32.509Z,72.47
2023-05-18T03:36:32.370Z,72.47
2023-05-18T03:37:32.390Z,72.57
2023-05-18T03:38:32.356Z,72.57
2023-05-18T03:39:32.356Z,72.57
2023-05-18T03:40:32.340Z,72.47
2023-05-18T03:41:32.334Z,72.47
2023-05-18T03:42:32.314Z,72.47
2023-05-18T03:43:32.360Z,72.57
2023-05-18T03:44:32.301Z,72.57
2023-05-18T03:45:32.444Z,72.67
2023-05-18T03:46:32.308Z,72.47
2023-05-18T03:47:32.271Z,72.47
2023-05-18T03:48:32.277Z,72.57
2023-05-18T03:49:32.238Z,72.67
2023-05-18T03:50:32.246Z,72.67
2023-05-18T03:51:32.221Z,72.78
2023-05-18T03:52:32.214Z,72.78
2023-05-18T03:53:32.227Z,72.64
2023-05-18T03:54:32.196Z,72.64
2023-05-18T03:55:32.428Z,72.64
2023-05-18T03:56:32.184Z,72.64
2023-05-18T03:57:32.162Z,72.54
2023-05-18T03:58:32.145Z,72.64
2023-05-18T03:59:32.174Z,72.64
2023-05-18T04:00:32.127Z,72.44
2023-05-18T04:01:32.236Z,72.64
2023-05-18T04:02:32.196Z,72.74
2023-05-18T04:03:32.201Z,72.64
2023-05-18T04:04:32.124Z,72.64
2023-05-18T04:05:32.406Z,72.64
2023-05-18T04:06:32.082Z,72.33
2023-05-18T04:07:32.064Z,72.33
2023-05-18T04:08:32.047Z,72.44
2023-05-18T04:09:32.082Z,72.23
2023-05-18T04:10:32.022Z,72.23
2023-05-18T04:11:32.020Z,72.33
2023-05-18T04:12:32.012Z,72.44
2023-05-18T04:13:31.992Z,72.44
2023-05-18T04:14:31.992Z,72.54
2023-05-18T04:15:32.153Z,72.64
2023-05-18T04:16:32.039Z,72.64
2023-05-18T04:17:32.089Z,72.64
2023-05-18T04:18:31.948Z,72.54
2023-05-18T04:19:32.091Z,72.44
2023-05-18T04:20:31.967Z,72.23
2023-05-18T04:21:31.952Z,72.33
2023-05-18T04:22:31.926Z,72.40
2023-05-18T04:23:31.901Z,72.40
2023-05-18T04:24:31.894Z,72.40
2023-05-18T04:25:32.131Z,72.81
2023-05-18T04:26:31.890Z,72.71
2023-05-18T04:27:31.861Z,72.50
2023-05-18T04:28:31.840Z,72.61
2023-05-18T04:29:31.846Z,72.30
2023-05-18T04:30:31.827Z,72.19
2023-05-18T04:31:32.325Z,72.19
2023-05-18T04:32:31.841Z,72.40
2023-05-18T04:33:31.808Z,72.40
2023-05-18T04:34:31.787Z,72.19
2023-05-18T04:35:32.238Z,72.19
2023-05-18T04:36:31.774Z,71.78
2023-05-18T04:37:31.791Z,72.09
2023-05-18T04:38:31.753Z,72.19
2023-05-18T04:39:31.753Z,71.99
2023-05-18T04:40:31.730Z,72.09
2023-05-18T04:41:31.710Z,72.19
2023-05-18T04:42:31.733Z,71.78
2023-05-18T04:43:31.698Z,71.99
2023-05-18T04:44:31.680Z,72.09
2023-05-18T04:45:32.035Z,71.95
2023-05-18T04:46:31.729Z,71.95
2023-05-18T04:47:31.707Z,71.75
2023-05-18T04:48:31.648Z,71.95
2023-05-18T04:49:31.653Z,71.64
2023-05-18T04:50:31.628Z,71.55
2023-05-18T04:51:31.618Z,71.44
2023-05-18T04:52:31.624Z,71.44
2023-05-18T04:53:31.606Z,71.55
2023-05-18T04:54:31.595Z,71.75
2023-05-18T04:55:31.805Z,71.75
2023-05-18T04:56:31.566Z,71.64
2023-05-18T04:57:31.604Z,71.64
2023-05-18T04:58:31.607Z,71.64
2023-05-18T04:59:31.530Z,71.64
2023-05-18T05:00:31.513Z,71.55
2023-05-18T05:01:31.537Z,71.20
2023-05-18T05:02:31.582Z,71.30
2023-05-18T05:03:31.666Z,71.30
2023-05-18T05:04:31.473Z,71.30
2023-05-18T05:05:31.775Z,71.41
2023-05-18T05:06:31.483Z,71.20
2023-05-18T05:07:31.465Z,71.20
2023-05-18T05:08:31.537Z,71.30
2023-05-18T05:09:31.442Z,71.10
2023-05-18T05:10:31.428Z,71.30
2023-05-18T05:11:31.416Z,71.41
2023-05-18T05:12:31.404Z,71.51
2023-05-18T05:13:31.407Z,71.51
2023-05-18T05:14:31.414Z,71.48
2023-05-18T05:15:31.513Z,71.37
2023-05-18T05:16:31.448Z,71.17
2023-05-18T05:17:31.407Z,71.06
2023-05-18T05:18:31.327Z,70.96
2023-05-18T05:19:31.416Z,71.27
2023-05-18T05:20:31.324Z,71.17
2023-05-18T05:21:31.315Z,71.06
2023-05-18T05:22:31.366Z,71.17
2023-05-18T05:23:31.284Z,71.44
2023-05-18T05:24:31.308Z,71.44
2023-05-18T05:25:31.485Z,71.14
2023-05-18T05:26:31.254Z,71.03
2023-05-18T05:27:31.234Z,71.14
2023-05-18T05:28:31.240Z,71.14
2023-05-18T05:29:31.240Z,71.10
2023-05-18T05:30:31.240Z,71.10
2023-05-18T05:31:31.254Z,71.00
2023-05-18T05:32:31.222Z,70.79
2023-05-18T05:33:31.224Z,70.79
2023-05-18T05:34:31.174Z,70.79
2023-05-18T05:35:33.432Z,70.90
2023-05-18T05:36:31.148Z,71.00
2023-05-18T05:37:31.144Z,70.90
2023-05-18T05:38:31.165Z,70.79
2023-05-18T05:39:31.125Z,70.76
2023-05-18T05:40:31.158Z,70.56
2023-05-18T05:41:32.413Z,70.35
2023-05-18T05:42:31.106Z,70.25
2023-05-18T05:43:31.216Z,70.42
2023-05-18T05:44:31.082Z,70.42
2023-05-18T05:45:31.403Z,70.21
2023-05-18T05:46:31.080Z,70.21
2023-05-18T05:47:31.057Z,69.09
2023-05-18T05:48:31.054Z,68.98
2023-05-18T05:49:31.021Z,68.77
2023-05-18T05:50:31.012Z,68.88
2023-05-18T05:51:30.989Z,68.95
2023-05-18T05:52:30.991Z,68.85
2023-05-18T05:53:30.976Z,68.23
2023-05-18T05:54:31.028Z,68.23
2023-05-18T05:55:31.217Z,68.33
2023-05-18T05:56:30.977Z,68.33
2023-05-18T05:57:30.954Z,68.64
2023-05-18T05:58:30.940Z,67.61
2023-05-18T05:59:30.936Z,67.61
2023-05-18T06:00:31.040Z,67.58
2023-05-18T06:01:30.912Z,67.48
2023-05-18T06:02:31.061Z,67.27
2023-05-18T06:03:31.937Z,67.07
2023-05-18T06:04:30.909Z,66.83
2023-05-18T06:05:31.039Z,66.93
2023-05-18T06:06:30.895Z,66.93
2023-05-18T06:07:30.843Z,66.42
2023-05-18T06:08:30.838Z,66.52
2023-05-18T06:09:30.821Z,66.52
2023-05-18T06:10:30.814Z,65.77
2023-05-18T06:11:30.817Z,65.98
2023-05-18T06:12:30.785Z,65.88
2023-05-18T06:13:30.784Z,64.64
2023-05-18T06:14:30.811Z,64.75
2023-05-18T06:15:30.998Z,64.64
2023-05-18T06:16:30.791Z,64.44
2023-05-18T06:17:30.801Z,64.34
2023-05-18T06:18:30.737Z,64.54
2023-05-18T06:19:30.754Z,64.75
2023-05-18T06:20:30.712Z,64.44
2023-05-18T06:21:30.706Z,64.75
2023-05-18T06:22:30.697Z,64.44
2023-05-18T06:23:30.694Z,64.54
2023-05-18T06:24:30.674Z,64.64
2023-05-18T06:25:30.864Z,64.64
2023-05-18T06:26:30.642Z,64.44
2023-05-18T06:27:30.639Z,64.34
2023-05-18T06:28:30.615Z,64.51
2023-05-18T06:29:30.642Z,64.51
2023-05-18T06:30:30.614Z,64.51
2023-05-18T06:31:30.748Z,64.41
2023-05-18T06:32:30.661Z,64.41
2023-05-18T06:33:30.580Z,64.61
2023-05-18T06:34:30.586Z,64.61
2023-05-18T06:35:30.717Z,64.72
2023-05-18T06:36:30.559Z,64.82
2023-05-18T06:37:30.565Z,64.61
2023-05-18T06:38:30.549Z,64.51
2023-05-18T06:39:30.516Z,64.82
2023-05-18T06:40:30.520Z,64.92
2023-05-18T06:41:30.493Z,64.79
2023-05-18T06:42:30.509Z,64.59
2023-05-18T06:43:30.508Z,64.79
2023-05-18T06:44:30.487Z,64.79
2023-05-18T06:45:30.562Z,64.89
2023-05-18T06:46:30.494Z,64.69
2023-05-18T06:47:30.460Z,64.69
2023-05-18T06:48:30.471Z,64.76
2023-05-18T06:49:30.429Z,65.07
2023-05-18T06:50:30.427Z,64.65
2023-05-18T06:51:30.394Z,64.97
2023-05-18T06:52:30.383Z,64.35
2023-05-18T06:53:30.401Z,64.45
2023-05-18T06:54:30.369Z,64.65
2023-05-18T06:55:30.562Z,64.56
2023-05-18T06:56:30.354Z,64.62
2023-05-18T06:57:30.342Z,64.73
2023-05-18T06:58:30.375Z,64.53
2023-05-18T06:59:30.328Z,64.22
2023-05-18T07:00:30.319Z,64.22
2023-05-18T07:01:30.341Z,64.01
2023-05-18T07:02:30.324Z,64.32
2023-05-18T07:03:30.337Z,64.42
2023-05-18T07:04:30.278Z,64.42
2023-05-18T07:05:30.465Z,65.04
2023-05-18T07:06:30.263Z,65.24
2023-05-18T07:07:30.268Z,64.62
2023-05-18T07:08:30.261Z,64.29
2023-05-18T07:09:30.225Z,64.50
2023-05-18T07:10:30.214Z,64.90
2023-05-18T07:11:30.216Z,64.50
2023-05-18T07:12:30.189Z,63.95
2023-05-18T07:13:30.192Z,64.26
2023-05-18T07:14:30.175Z,64.16
2023-05-18T07:15:30.490Z,63.85
2023-05-18T07:16:30.236Z,63.54
2023-05-18T07:17:30.166Z,63.00
2023-05-18T07:18:30.126Z,63.10
2023-05-18T07:19:30.146Z,62.80
2023-05-18T07:20:30.127Z,62.39
2023-05-18T07:21:30.107Z,62.29
2023-05-18T07:22:30.094Z,61.98
2023-05-18T07:23:30.099Z,62.29
2023-05-18T07:24:30.077Z,62.70
2023-05-18T07:25:30.380Z,62.80
2023-05-18T07:26:30.058Z,63.07
2023-05-18T07:27:30.050Z,63.18
2023-05-18T07:28:30.044Z,62.87
2023-05-18T07:29:30.023Z,63.18
2023-05-18T07:30:30.023Z,62.84
2023-05-18T07:31:30.117Z,62.54
2023-05-18T07:32:30.049Z,60.90
2023-05-18T07:33:30.156Z,60.28
2023-05-18T07:34:29.972Z,60.80
2023-05-18T07:35:30.140Z,61.49
2023-05-18T07:36:29.946Z,59.34
2023-05-18T07:37:29.941Z,58.42
2023-05-18T07:38:29.928Z,59.44
2023-05-18T07:39:29.930Z,60.26
2023-05-18T07:40:30.342Z,61.08
2023-05-18T07:41:29.910Z,61.28
2023-05-18T07:42:29.884Z,61.05
2023-05-18T07:43:29.869Z,60.94
2023-05-18T07:44:29.868Z,59.11
2023-05-18T07:45:30.137Z,58.39
2023-05-18T07:46:29.909Z,58.80
2023-05-18T07:47:29.954Z,59.18
2023-05-18T07:48:29.867Z,59.18
2023-05-18T07:49:29.828Z,59.69
2023-05-18T07:50:29.949Z,60.10
2023-05-18T07:51:29.829Z,60.17
2023-05-18T07:52:29.794Z,58.64
2023-05-18T07:53:29.778Z,55.99
2023-05-18T07:54:29.780Z,56.50
2023-05-18T07:55:30.112Z,56.91
2023-05-18T07:56:29.751Z,57.52
2023-05-18T07:57:29.755Z,56.71
2023-05-18T07:58:29.859Z,55.89
2023-05-18T07:59:29.717Z,55.07
2023-05-18T08:00:29.717Z,54.46
2023-05-18T08:01:29.681Z,55.05
2023-05-18T08:02:31.455Z,54.54
2023-05-18T08:03:29.883Z,54.44
2023-05-18T08:04:29.840Z,54.44
2023-05-18T08:05:29.963Z,54.74
2023-05-18T08:06:29.657Z,55.05
2023-05-18T08:07:29.642Z,54.44
2023-05-18T08:08:29.679Z,54.24
2023-05-18T08:09:29.619Z,54.13
2023-05-18T08:10:29.604Z,54.54
2023-05-18T08:11:29.592Z,54.44
2023-05-18T08:12:29.587Z,54.54
2023-05-18T08:13:30.450Z,54.54
2023-05-18T08:14:29.596Z,54.72
2023-05-18T08:15:29.769Z,54.11
2023-05-18T08:16:29.565Z,54.11
2023-05-18T08:17:29.554Z,54.41
2023-05-18T08:18:29.516Z,53.80
2023-05-18T08:19:29.609Z,53.90
2023-05-18T08:20:29.550Z,53.88
2023-05-18T08:21:29.485Z,53.57
2023-05-18T08:22:29.472Z,54.28
2023-05-18T08:23:29.489Z,53.27
2023-05-18T08:24:29.461Z,53.67
2023-05-18T08:25:29.598Z,53.16
2023-05-18T08:26:29.454Z,52.96
2023-05-18T08:27:29.433Z,52.96
2023-05-18T08:28:29.413Z,53.37
2023-05-18T08:29:29.408Z,53.27
2023-05-18T08:30:29.407Z,52.45
2023-05-18T08:31:29.506Z,53.14
2023-05-18T08:32:29.456Z,53.55
2023-05-18T08:33:29.377Z,53.34
2023-05-18T08:34:29.364Z,53.65
2023-05-18T08:35:29.449Z,53.42
2023-05-18T08:36:29.334Z,52.71
2023-05-18T08:37:29.580Z,52.91
2023-05-18T08:38:29.310Z,51.89
2023-05-18T08:39:29.288Z,50.87
2023-05-18T08:40:29.287Z,51.18
2023-05-18T08:41:29.268Z,51.79
2023-05-18T08:42:38.072Z,52.40
2023-05-18T08:43:30.198Z,51.56
2023-05-18T08:44:29.260Z,51.36
2023-05-18T08:45:29.402Z,51.56
2023-05-18T08:46:29.231Z,51.56
2023-05-18T08:47:29.251Z,51.56
2023-05-18T08:48:29.271Z,51.87
2023-05-18T08:49:29.207Z,51.36
2023-05-18T08:50:29.363Z,51.46
2023-05-18T08:51:29.161Z,52.05
2023-05-18T08:52:29.154Z,51.34
2023-05-18T08:53:29.163Z,50.93
2023-05-18T08:54:29.177Z,52.45
2023-05-18T08:55:29.252Z,52.15
2023-05-18T08:56:29.142Z,51.34
2023-05-18T08:57:29.102Z,51.54
2023-05-18T08:58:29.116Z,51.14
2023-05-18T08:59:29.613Z,50.93
2023-05-18T09:00:29.339Z,50.12
2023-05-18T09:01:29.632Z,50.52
2023-05-18T09:02:29.105Z,50.12
2023-05-18T09:03:29.042Z,49.91
2023-05-18T09:04:29.080Z,50.83
2023-05-18T09:05:29.311Z,50.83
2023-05-18T09:06:29.022Z,51.03
2023-05-18T09:07:29.009Z,51.34
2023-05-18T09:08:28.997Z,50.50
2023-05-18T09:09:28.989Z,50.20
2023-05-18T09:10:28.982Z,50.20
2023-05-18T09:11:28.995Z,49.48
2023-05-18T09:12:28.988Z,49.48
2023-05-18T09:13:28.955Z,49.46
2023-05-18T09:14:28.964Z,50.27
2023-05-18T09:15:29.226Z,50.27
2023-05-18T09:16:29.103Z,50.37
2023-05-18T09:17:28.963Z,49.64
2023-05-18T09:18:28.900Z,48.63
2023-05-18T09:19:28.957Z,48.42
2023-05-18T09:20:28.875Z,48.52
2023-05-18T09:21:28.878Z,48.32
2023-05-18T09:22:28.879Z,48.42
2023-05-18T09:23:28.843Z,48.83
2023-05-18T09:24:28.909Z,49.33
2023-05-18T09:25:29.056Z,49.54
2023-05-18T09:26:28.832Z,48.32
2023-05-18T09:27:28.823Z,48.22
2023-05-18T09:28:28.830Z,46.70
2023-05-18T09:29:29.462Z,46.29
2023-05-18T09:30:28.792Z,46.80
2023-05-18T09:31:28.795Z,46.90
2023-05-18T09:32:28.766Z,46.80
2023-05-18T09:33:28.949Z,46.39
2023-05-18T09:34:28.755Z,46.59
2023-05-18T09:35:28.820Z,47.08
2023-05-18T09:36:28.722Z,47.38
2023-05-18T09:37:28.714Z,47.49
2023-05-18T09:38:28.698Z,44.54
2023-05-18T09:39:28.699Z,44.24
2023-05-18T09:40:28.682Z,43.84
2023-05-18T09:41:28.701Z,43.53
2023-05-18T09:42:28.659Z,42.92
2023-05-18T09:43:28.638Z,43.12
2023-05-18T09:44:28.633Z,43.71
2023-05-18T09:45:28.968Z,43.71
2023-05-18T09:46:28.647Z,44.12
2023-05-18T09:47:28.638Z,44.22
2023-05-18T09:48:28.648Z,43.71
2023-05-18T09:49:28.582Z,43.81
2023-05-18T09:50:28.621Z,44.42
2023-05-18T09:51:28.575Z,45.03
2023-05-18T09:52:28.553Z,45.11
2023-05-18T09:53:28.550Z,44.30
2023-05-18T09:54:28.527Z,43.79
2023-05-18T09:55:28.655Z,43.99
2023-05-18T09:56:28.516Z,43.69
2023-05-18T09:57:28.514Z,43.69
2023-05-18T09:58:28.486Z,44.20
2023-05-18T09:59:28.478Z,44.50
2023-05-18T10:00:28.500Z,44.60
2023-05-18T10:01:28.531Z,44.70
2023-05-18T10:02:28.470Z,44.99
2023-05-18T10:03:28.460Z,43.67
2023-05-18T10:04:28.477Z,43.89
2023-05-18T10:05:28.461Z,44.18
2023-05-18T10:06:28.433Z,44.78
2023-05-18T10:07:28.417Z,45.09
2023-05-18T10:08:28.397Z,45.39
2023-05-18T10:09:28.385Z,45.19
2023-05-18T10:10:28.533Z,44.96
2023-05-18T10:11:28.412Z,45.17
2023-05-18T10:12:28.357Z,45.25
2023-05-18T10:13:28.334Z,46.26
2023-05-18T10:14:31.087Z,46.77
2023-05-18T10:15:28.384Z,46.34
2023-05-18T10:16:28.401Z,44.92
2023-05-18T10:17:28.438Z,44.72
2023-05-18T10:18:28.325Z,44.62
2023-05-18T10:19:28.445Z,45.15
2023-05-18T10:20:28.330Z,45.04
2023-05-18T10:21:28.317Z,44.95
2023-05-18T10:22:28.269Z,44.64
2023-05-18T10:23:28.256Z,44.84
2023-05-18T10:24:28.239Z,45.86
2023-05-18T10:25:28.239Z,44.84
2023-05-18T10:26:28.214Z,45.65
2023-05-18T10:27:28.225Z,44.84
2023-05-18T10:28:28.187Z,44.74
2023-05-18T10:29:28.171Z,44.87
2023-05-18T10:30:28.180Z,44.66
2023-05-18T10:31:28.214Z,45.07
2023-05-18T10:32:28.186Z,44.87
2023-05-18T10:33:29.905Z,45.57
2023-05-18T10:34:28.132Z,45.27
2023-05-18T10:35:28.185Z,45.47
2023-05-18T10:36:28.110Z,45.37
2023-05-18T10:37:28.143Z,45.87
2023-05-18T10:38:28.244Z,46.48
2023-05-18T10:39:28.085Z,46.18
2023-05-18T10:40:28.080Z,45.90
2023-05-18T10:41:28.048Z,46.69
2023-05-18T10:42:28.051Z,45.87
2023-05-18T10:43:28.307Z,45.78
2023-05-18T10:44:28.029Z,44.66
2023-05-18T10:45:28.015Z,44.96
2023-05-18T10:46:28.075Z,45.35
2023-05-18T10:47:28.316Z,44.84
2023-05-18T10:48:28.049Z,44.03
2023-05-18T10:49:27.982Z,44.64
2023-05-18T10:50:27.971Z,45.04
2023-05-18T10:51:27.947Z,44.84
2023-05-18T10:52:27.934Z,44.03
2023-05-18T10:53:27.976Z,44.24
2023-05-18T10:54:27.920Z,43.63
2023-05-18T10:55:27.927Z,44.84
2023-05-18T10:56:27.911Z,44.03
2023-05-18T10:57:27.897Z,43.73
2023-05-18T10:58:27.884Z,44.24
2023-05-18T10:59:27.907Z,44.54
2023-05-18T11:00:27.861Z,43.83
2023-05-18T11:01:27.869Z,42.90
2023-05-18T11:02:27.868Z,42.60
2023-05-18T11:03:27.825Z,43.71
2023-05-18T11:04:27.843Z,44.01
2023-05-18T11:05:27.831Z,42.69
2023-05-18T11:06:27.823Z,43.10
2023-05-18T11:07:27.808Z,44.01
2023-05-18T11:08:27.776Z,43.71
2023-05-18T11:09:27.774Z,43.10
2023-05-18T11:10:27.823Z,43.20
2023-05-18T11:11:27.752Z,43.89
2023-05-18T11:12:27.748Z,43.79
2023-05-18T11:13:27.746Z,43.29
2023-05-18T11:14:27.719Z,43.08
2023-05-18T11:15:27.753Z,43.08
2023-05-18T11:16:30.444Z,43.18
2023-05-18T11:17:27.725Z,43.37
2023-05-18T11:18:27.665Z,43.97
2023-05-18T11:19:27.735Z,44.07
2023-05-18T11:20:27.659Z,43.46
2023-05-18T11:21:27.667Z,42.96
2023-05-18T11:22:29.816Z,43.26
2023-05-18T11:23:27.624Z,43.16
2023-05-18T11:24:27.626Z,43.97
2023-05-18T11:25:27.624Z,43.26
2023-05-18T11:26:27.603Z,43.29
2023-05-18T11:27:27.576Z,44.37
2023-05-18T11:28:27.567Z,43.46
2023-05-18T11:29:27.567Z,43.46
2023-05-18T11:30:27.606Z,43.26
2023-05-18T11:31:27.612Z,43.26
2023-05-18T11:32:30.390Z,41.95
2023-05-18T11:33:27.613Z,42.35
2023-05-18T11:34:27.514Z,41.44
2023-05-18T11:35:27.520Z,41.75
2023-05-18T11:36:27.508Z,42.05
2023-05-18T11:37:27.489Z,41.73
2023-05-18T11:38:27.471Z,42.23
2023-05-18T11:39:27.456Z,43.14
2023-05-18T11:40:27.445Z,42.03
2023-05-18T11:41:27.462Z,42.54
2023-05-18T11:42:27.414Z,42.03
2023-05-18T11:43:27.417Z,42.33
2023-05-18T11:44:27.422Z,42.54
2023-05-18T11:45:27.398Z,42.03
2023-05-18T11:46:27.416Z,42.03
2023-05-18T11:47:27.403Z,42.13
2023-05-18T11:48:27.511Z,42.74
2023-05-18T11:49:27.381Z,42.61
2023-05-18T11:50:27.349Z,42.11
2023-05-18T11:51:27.382Z,41.50
2023-05-18T11:52:27.340Z,41.02
2023-05-18T11:53:27.391Z,41.71
2023-05-18T11:54:27.308Z,41.61
2023-05-18T11:55:27.312Z,41.41
2023-05-18T11:56:27.330Z,41.10
2023-05-18T11:57:27.361Z,40.19
2023-05-18T11:58:27.268Z,40.19
2023-05-18T11:59:27.264Z,40.28
2023-05-18T12:00:27.276Z,40.17
2023-05-18T12:01:27.243Z,40.37
2023-05-18T12:02:27.341Z,39.67
2023-05-18T12:03:27.340Z,39.87
2023-05-18T12:04:27.244Z,39.77
2023-05-18T12:05:27.196Z,38.86
2023-05-18T12:06:27.178Z,40.58
2023-05-18T12:07:27.168Z,39.95
2023-05-18T12:08:27.156Z,40.16
2023-05-18T12:09:27.388Z,39.65
2023-05-18T12:10:27.152Z,39.55
2023-05-18T12:11:27.146Z,39.65
2023-05-18T12:12:27.129Z,40.05
2023-05-18T12:13:27.130Z,39.35
2023-05-18T12:14:27.119Z,39.15
2023-05-18T12:15:27.135Z,39.85
2023-05-18T12:16:27.130Z,40.23
2023-05-18T12:17:27.165Z,39.83
2023-05-18T12:18:27.057Z,39.23
2023-05-18T12:19:27.160Z,38.32
2023-05-18T12:20:27.042Z,39.13
2023-05-18T12:21:27.028Z,39.73
2023-05-18T12:22:27.103Z,40.42
2023-05-18T12:23:26.997Z,39.92
2023-05-18T12:24:26.989Z,39.11
2023-05-18T12:25:27.097Z,39.92
2023-05-18T12:26:26.985Z,39.81
2023-05-18T12:27:26.973Z,39.92
2023-05-18T12:28:26.993Z,38.60
2023-05-18T12:29:26.966Z,38.10
2023-05-18T12:30:26.922Z,37.90
2023-05-18T12:31:26.952Z,38.00
2023-05-18T12:32:26.955Z,38.40
2023-05-18T12:33:26.902Z,38.89
2023-05-18T12:34:26.914Z,37.38
2023-05-18T12:35:26.900Z,38.08
2023-05-18T12:36:26.883Z,37.98
2023-05-18T12:37:34.272Z,39.07
2023-05-18T12:38:26.902Z,37.66
2023-05-18T12:39:28.778Z,37.16
2023-05-18T12:40:26.839Z,37.36
2023-05-18T12:41:26.833Z,37.66
2023-05-18T12:42:26.810Z,36.86
2023-05-18T12:43:26.824Z,37.06
2023-05-18T12:44:26.814Z,37.46
2023-05-18T12:45:26.792Z,38.17
2023-05-18T12:46:26.869Z,38.47
2023-05-18T12:47:26.806Z,37.56
2023-05-18T12:48:26.802Z,37.45
2023-05-18T12:49:26.753Z,37.14
2023-05-18T12:50:27.138Z,36.84
2023-05-18T12:51:26.735Z,36.64
2023-05-18T12:52:26.724Z,37.24